sensor_id;sensor_type;location;lat;lon;timestamp;temperature;humidity
42743;DHT22;28397;44.552;-0.848;2022-09-13T00:00:43;21.80;99.90
42743;DHT22;28397;44.552;-0.848;2022-09-13T00:03:11;21.90;99.90
42743;DHT22;28397;44.552;-0.848;2022-09-13T00:05:38;21.90;99.90
42743;DHT22;28397;44.552;-0.848;2022-09-13T00:08:04;21.70;99.90
42743;DHT22;28397;44.552;-0.848;2022-09-13T00:10:32;22.00;99.90
42743;DHT22;28397;44.552;-0.848;2022-09-13T00:12:59;21.90;99.90
42743;DHT22;28397;44.552;-0.848;2022-09-13T00:15:25;22.00;99.90
42743;DHT22;28397;44.552;-0.848;2022-09-13T00:17:50;21.80;99.90
42743;DHT22;28397;44.552;-0.848;2022-09-13T00:20:16;22.00;99.90
42743;DHT22;28397;44.552;-0.848;2022-09-13T00:22:42;21.70;99.90
42743;DHT22;28397;44.552;-0.848;2022-09-13T00:25:08;21.70;99.90
42743;DHT22;28397;44.552;-0.848;2022-09-13T00:27:35;21.70;99.90
42743;DHT22;28397;44.552;-0.848;2022-09-13T00:30:03;21.90;99.90
42743;DHT22;28397;44.552;-0.848;2022-09-13T00:32:30;21.90;99.90
42743;DHT22;28397;44.552;-0.848;2022-09-13T00:34:55;21.90;99.90
42743;DHT22;28397;44.552;-0.848;2022-09-13T00:37:21;21.50;99.90
42743;DHT22;28397;44.552;-0.848;2022-09-13T00:39:47;21.60;99.90
42743;DHT22;28397;44.552;-0.848;2022-09-13T00:42:13;21.60;99.90
42743;DHT22;28397;44.552;-0.848;2022-09-13T00:47:53;21.50;99.90
42743;DHT22;28397;44.552;-0.848;2022-09-13T00:50:39;21.40;99.90
42743;DHT22;28397;44.552;-0.848;2022-09-13T00:53:10;21.60;99.90
42743;DHT22;28397;44.552;-0.848;2022-09-13T00:58:08;21.90;99.90
42743;DHT22;28397;44.552;-0.848;2022-09-13T01:00:35;21.50;99.90
42743;DHT22;28397;44.552;-0.848;2022-09-13T01:03:07;21.30;99.90
42743;DHT22;28397;44.552;-0.848;2022-09-13T01:05:37;21.40;99.90
42743;DHT22;28397;44.552;-0.848;2022-09-13T01:08:06;21.30;99.90
42743;DHT22;28397;44.552;-0.848;2022-09-13T01:10:48;21.40;99.90
42743;DHT22;28397;44.552;-0.848;2022-09-13T01:13:19;21.40;99.90
42743;DHT22;28397;44.552;-0.848;2022-09-13T01:15:46;21.30;99.90
42743;DHT22;28397;44.552;-0.848;2022-09-13T01:18:12;21.40;99.90
42743;DHT22;28397;44.552;-0.848;2022-09-13T01:44:26;21.00;99.90
42743;DHT22;28397;44.552;-0.848;2022-09-13T01:46:47;21.00;99.90
42743;DHT22;28397;44.552;-0.848;2022-09-13T02:00:20;20.90;99.90
42743;DHT22;28397;44.552;-0.848;2022-09-13T02:02:58;20.90;99.90
42743;DHT22;28397;44.552;-0.848;2022-09-13T02:05:43;21.10;99.90
42743;DHT22;28397;44.552;-0.848;2022-09-13T02:08:37;21.10;99.90
42743;DHT22;28397;44.552;-0.848;2022-09-13T02:13:35;21.20;99.90
42743;DHT22;28397;44.552;-0.848;2022-09-13T02:16:09;20.90;99.90
42743;DHT22;28397;44.552;-0.848;2022-09-13T02:18:39;20.80;99.90
42743;DHT22;28397;44.552;-0.848;2022-09-13T02:21:21;21.10;99.90
42743;DHT22;28397;44.552;-0.848;2022-09-13T02:24:06;21.00;99.90
42743;DHT22;28397;44.552;-0.848;2022-09-13T02:26:33;21.00;99.90
42743;DHT22;28397;44.552;-0.848;2022-09-13T02:29:04;21.00;99.90
42743;DHT22;28397;44.552;-0.848;2022-09-13T02:31:50;20.90;99.90
42743;DHT22;28397;44.552;-0.848;2022-09-13T02:34:24;21.00;99.90
42743;DHT22;28397;44.552;-0.848;2022-09-13T02:36:54;20.90;99.90
42743;DHT22;28397;44.552;-0.848;2022-09-13T02:39:24;20.80;99.90
42743;DHT22;28397;44.552;-0.848;2022-09-13T02:41:55;20.90;99.90
42743;DHT22;28397;44.552;-0.848;2022-09-13T02:44:29;21.00;99.90
42743;DHT22;28397;44.552;-0.848;2022-09-13T02:53:11;21.10;99.90
42743;DHT22;28397;44.552;-0.848;2022-09-13T03:01:07;20.90;99.90
42743;DHT22;28397;44.552;-0.848;2022-09-13T03:03:33;21.00;99.90
42743;DHT22;28397;44.552;-0.848;2022-09-13T03:05:59;21.00;99.90
42743;DHT22;28397;44.552;-0.848;2022-09-13T03:08:25;21.00;99.90
42743;DHT22;28397;44.552;-0.848;2022-09-13T03:11:01;21.00;99.90
42743;DHT22;28397;44.552;-0.848;2022-09-13T03:19:04;21.00;99.90
42743;DHT22;28397;44.552;-0.848;2022-09-13T03:21:38;21.10;99.90
42743;DHT22;28397;44.552;-0.848;2022-09-13T03:24:22;21.00;99.90
42743;DHT22;28397;44.552;-0.848;2022-09-13T03:29:51;21.10;99.90
42743;DHT22;28397;44.552;-0.848;2022-09-13T03:32:36;21.20;99.90
42743;DHT22;28397;44.552;-0.848;2022-09-13T03:38:07;21.20;99.90
42743;DHT22;28397;44.552;-0.848;2022-09-13T03:41:26;21.10;99.90
42743;DHT22;28397;44.552;-0.848;2022-09-13T03:43:50;21.10;99.90
42743;DHT22;28397;44.552;-0.848;2022-09-13T03:46:42;21.20;99.90
42743;DHT22;28397;44.552;-0.848;2022-09-13T03:49:13;21.10;99.90
42743;DHT22;28397;44.552;-0.848;2022-09-13T03:51:40;21.20;99.90
42743;DHT22;28397;44.552;-0.848;2022-09-13T03:54:18;21.20;99.90
42743;DHT22;28397;44.552;-0.848;2022-09-13T03:57:04;21.20;99.90
42743;DHT22;28397;44.552;-0.848;2022-09-13T03:59:30;21.40;99.90
42743;DHT22;28397;44.552;-0.848;2022-09-13T04:01:56;21.40;99.90
42743;DHT22;28397;44.552;-0.848;2022-09-13T04:04:22;21.50;99.90
42743;DHT22;28397;44.552;-0.848;2022-09-13T04:06:47;21.40;99.90
42743;DHT22;28397;44.552;-0.848;2022-09-13T04:09:13;21.50;99.90
42743;DHT22;28397;44.552;-0.848;2022-09-13T04:11:39;21.60;99.90
42743;DHT22;28397;44.552;-0.848;2022-09-13T04:14:05;21.40;99.90
42743;DHT22;28397;44.552;-0.848;2022-09-13T04:16:31;21.40;99.90
42743;DHT22;28397;44.552;-0.848;2022-09-13T04:18:56;21.50;99.90
42743;DHT22;28397;44.552;-0.848;2022-09-13T04:21:22;21.50;99.90
42743;DHT22;28397;44.552;-0.848;2022-09-13T04:23:49;21.50;99.90
42743;DHT22;28397;44.552;-0.848;2022-09-13T04:26:15;21.50;99.90
42743;DHT22;28397;44.552;-0.848;2022-09-13T04:28:41;21.60;99.90
42743;DHT22;28397;44.552;-0.848;2022-09-13T04:31:07;21.70;99.90
42743;DHT22;28397;44.552;-0.848;2022-09-13T04:33:33;21.70;99.90
42743;DHT22;28397;44.552;-0.848;2022-09-13T04:35:59;21.60;99.90
42743;DHT22;28397;44.552;-0.848;2022-09-13T04:38:25;21.70;99.90
42743;DHT22;28397;44.552;-0.848;2022-09-13T04:40:53;21.70;99.90
42743;DHT22;28397;44.552;-0.848;2022-09-13T04:43:18;21.60;99.90
42743;DHT22;28397;44.552;-0.848;2022-09-13T04:45:44;21.80;99.90
42743;DHT22;28397;44.552;-0.848;2022-09-13T04:48:11;21.80;99.90
42743;DHT22;28397;44.552;-0.848;2022-09-13T04:50:37;21.80;99.90
42743;DHT22;28397;44.552;-0.848;2022-09-13T04:53:02;21.80;99.90
42743;DHT22;28397;44.552;-0.848;2022-09-13T04:55:28;21.80;99.90
42743;DHT22;28397;44.552;-0.848;2022-09-13T04:57:54;21.80;99.90
42743;DHT22;28397;44.552;-0.848;2022-09-13T05:00:21;21.90;99.90
42743;DHT22;28397;44.552;-0.848;2022-09-13T05:02:47;22.00;99.90
42743;DHT22;28397;44.552;-0.848;2022-09-13T05:05:12;21.90;99.90
42743;DHT22;28397;44.552;-0.848;2022-09-13T05:07:39;22.00;99.90
42743;DHT22;28397;44.552;-0.848;2022-09-13T05:10:05;22.00;99.90
42743;DHT22;28397;44.552;-0.848;2022-09-13T05:12:31;22.00;99.90
42743;DHT22;28397;44.552;-0.848;2022-09-13T05:14:57;22.00;99.90
42743;DHT22;28397;44.552;-0.848;2022-09-13T05:17:22;22.10;99.90
42743;DHT22;28397;44.552;-0.848;2022-09-13T05:19:48;22.20;99.90
42743;DHT22;28397;44.552;-0.848;2022-09-13T05:22:13;22.20;99.90
42743;DHT22;28397;44.552;-0.848;2022-09-13T05:24:39;22.10;99.90
42743;DHT22;28397;44.552;-0.848;2022-09-13T05:27:05;22.10;99.90
42743;DHT22;28397;44.552;-0.848;2022-09-13T05:29:30;22.20;99.90
42743;DHT22;28397;44.552;-0.848;2022-09-13T05:31:56;22.10;99.90
42743;DHT22;28397;44.552;-0.848;2022-09-13T05:34:23;22.10;99.90
42743;DHT22;28397;44.552;-0.848;2022-09-13T05:36:48;22.10;99.90
42743;DHT22;28397;44.552;-0.848;2022-09-13T05:39:16;22.20;99.90
42743;DHT22;28397;44.552;-0.848;2022-09-13T05:41:46;22.20;99.90
42743;DHT22;28397;44.552;-0.848;2022-09-13T05:44:12;22.30;99.90
42743;DHT22;28397;44.552;-0.848;2022-09-13T05:46:38;22.30;99.90
42743;DHT22;28397;44.552;-0.848;2022-09-13T05:49:04;22.20;99.90
42743;DHT22;28397;44.552;-0.848;2022-09-13T05:51:30;22.30;99.90
42743;DHT22;28397;44.552;-0.848;2022-09-13T05:53:57;22.30;99.90
42743;DHT22;28397;44.552;-0.848;2022-09-13T05:56:26;22.30;99.90
42743;DHT22;28397;44.552;-0.848;2022-09-13T05:58:53;22.20;99.90
42743;DHT22;28397;44.552;-0.848;2022-09-13T06:01:21;22.30;99.90
42743;DHT22;28397;44.552;-0.848;2022-09-13T06:03:55;22.30;99.90
42743;DHT22;28397;44.552;-0.848;2022-09-13T06:06:22;22.30;99.90
42743;DHT22;28397;44.552;-0.848;2022-09-13T06:08:51;22.30;99.90
42743;DHT22;28397;44.552;-0.848;2022-09-13T06:11:18;22.30;99.90
42743;DHT22;28397;44.552;-0.848;2022-09-13T06:13:44;22.30;99.90
42743;DHT22;28397;44.552;-0.848;2022-09-13T06:16:12;22.30;99.90
42743;DHT22;28397;44.552;-0.848;2022-09-13T06:18:38;22.40;99.90
42743;DHT22;28397;44.552;-0.848;2022-09-13T06:21:12;22.40;99.90
42743;DHT22;28397;44.552;-0.848;2022-09-13T06:23:46;22.50;99.90
42743;DHT22;28397;44.552;-0.848;2022-09-13T06:26:14;22.70;99.90
42743;DHT22;28397;44.552;-0.848;2022-09-13T06:28:40;22.60;99.90
42743;DHT22;28397;44.552;-0.848;2022-09-13T06:31:11;22.70;99.90
42743;DHT22;28397;44.552;-0.848;2022-09-13T06:33:39;22.70;99.90
42743;DHT22;28397;44.552;-0.848;2022-09-13T06:36:07;22.70;99.90
42743;DHT22;28397;44.552;-0.848;2022-09-13T06:38:33;22.70;99.90
42743;DHT22;28397;44.552;-0.848;2022-09-13T06:41:08;22.90;99.90
42743;DHT22;28397;44.552;-0.848;2022-09-13T06:43:34;22.90;99.90
42743;DHT22;28397;44.552;-0.848;2022-09-13T06:46:02;23.10;99.90
42743;DHT22;28397;44.552;-0.848;2022-09-13T06:48:37;23.30;99.90
42743;DHT22;28397;44.552;-0.848;2022-09-13T06:51:06;23.40;99.90
42743;DHT22;28397;44.552;-0.848;2022-09-13T06:53:33;23.50;99.90
42743;DHT22;28397;44.552;-0.848;2022-09-13T06:56:09;23.50;99.90
42743;DHT22;28397;44.552;-0.848;2022-09-13T06:58:36;23.50;99.90
42743;DHT22;28397;44.552;-0.848;2022-09-13T07:01:18;23.80;99.90
42743;DHT22;28397;44.552;-0.848;2022-09-13T07:03:49;24.40;99.90
42743;DHT22;28397;44.552;-0.848;2022-09-13T07:06:17;24.90;99.90
42743;DHT22;28397;44.552;-0.848;2022-09-13T07:08:44;26.30;99.90
42743;DHT22;28397;44.552;-0.848;2022-09-13T07:11:12;27.90;99.90
42743;DHT22;28397;44.552;-0.848;2022-09-13T07:13:38;28.40;99.90
42743;DHT22;28397;44.552;-0.848;2022-09-13T07:16:06;28.10;99.90
42743;DHT22;28397;44.552;-0.848;2022-09-13T07:18:33;28.90;99.90
42743;DHT22;28397;44.552;-0.848;2022-09-13T07:21:00;28.30;99.90
42743;DHT22;28397;44.552;-0.848;2022-09-13T07:23:28;28.00;99.90
42743;DHT22;28397;44.552;-0.848;2022-09-13T07:25:55;28.00;99.90
42743;DHT22;28397;44.552;-0.848;2022-09-13T07:28:27;27.20;99.90
42743;DHT22;28397;44.552;-0.848;2022-09-13T07:30:53;26.50;99.90
42743;DHT22;28397;44.552;-0.848;2022-09-13T07:33:19;26.10;99.90
42743;DHT22;28397;44.552;-0.848;2022-09-13T07:35:45;25.90;99.90
42743;DHT22;28397;44.552;-0.848;2022-09-13T07:38:11;25.80;99.90
42743;DHT22;28397;44.552;-0.848;2022-09-13T07:40:37;25.80;99.90
42743;DHT22;28397;44.552;-0.848;2022-09-13T07:43:02;25.80;99.90
42743;DHT22;28397;44.552;-0.848;2022-09-13T07:45:28;25.80;99.90
42743;DHT22;28397;44.552;-0.848;2022-09-13T07:47:54;26.10;99.90
42743;DHT22;28397;44.552;-0.848;2022-09-13T07:50:20;26.30;99.90
42743;DHT22;28397;44.552;-0.848;2022-09-13T07:52:46;28.30;99.90
42743;DHT22;28397;44.552;-0.848;2022-09-13T07:55:11;28.00;99.90
42743;DHT22;28397;44.552;-0.848;2022-09-13T07:57:37;28.40;99.90
42743;DHT22;28397;44.552;-0.848;2022-09-13T08:00:03;28.30;99.90
42743;DHT22;28397;44.552;-0.848;2022-09-13T08:02:30;27.50;99.90
42743;DHT22;28397;44.552;-0.848;2022-09-13T08:04:55;27.50;99.90
42743;DHT22;28397;44.552;-0.848;2022-09-13T08:07:21;28.40;99.90
42743;DHT22;28397;44.552;-0.848;2022-09-13T08:09:47;27.80;99.90
42743;DHT22;28397;44.552;-0.848;2022-09-13T08:12:12;28.10;99.90
42743;DHT22;28397;44.552;-0.848;2022-09-13T08:14:38;27.30;99.90
42743;DHT22;28397;44.552;-0.848;2022-09-13T08:17:03;26.90;99.90
42743;DHT22;28397;44.552;-0.848;2022-09-13T08:19:29;26.80;99.90
42743;DHT22;28397;44.552;-0.848;2022-09-13T08:21:55;26.70;99.90
42743;DHT22;28397;44.552;-0.848;2022-09-13T08:24:21;26.60;99.90
42743;DHT22;28397;44.552;-0.848;2022-09-13T08:26:47;26.40;99.90
42743;DHT22;28397;44.552;-0.848;2022-09-13T08:29:14;26.10;99.90
42743;DHT22;28397;44.552;-0.848;2022-09-13T08:31:40;25.90;99.90
42743;DHT22;28397;44.552;-0.848;2022-09-13T08:34:15;25.80;99.90
42743;DHT22;28397;44.552;-0.848;2022-09-13T08:36:43;25.80;99.90
42743;DHT22;28397;44.552;-0.848;2022-09-13T08:39:09;25.70;99.90
42743;DHT22;28397;44.552;-0.848;2022-09-13T08:44:17;25.90;99.90
42743;DHT22;28397;44.552;-0.848;2022-09-13T08:46:48;25.50;99.90
42743;DHT22;28397;44.552;-0.848;2022-09-13T08:49:21;25.60;99.90
42743;DHT22;28397;44.552;-0.848;2022-09-13T08:51:56;25.60;99.90
42743;DHT22;28397;44.552;-0.848;2022-09-13T08:54:23;25.60;99.90
42743;DHT22;28397;44.552;-0.848;2022-09-13T09:02:34;25.00;99.90
42743;DHT22;28397;44.552;-0.848;2022-09-13T09:05:19;25.00;99.90
42743;DHT22;28397;44.552;-0.848;2022-09-13T09:07:50;25.00;99.90
42743;DHT22;28397;44.552;-0.848;2022-09-13T09:10:21;25.50;99.90
42743;DHT22;28397;44.552;-0.848;2022-09-13T09:20:38;25.80;99.90
42743;DHT22;28397;44.552;-0.848;2022-09-13T09:23:18;25.40;99.90
42743;DHT22;28397;44.552;-0.848;2022-09-13T09:25:45;25.30;99.90
42743;DHT22;28397;44.552;-0.848;2022-09-13T09:28:16;25.20;99.90
42743;DHT22;28397;44.552;-0.848;2022-09-13T09:30:58;25.20;99.90
42743;DHT22;28397;44.552;-0.848;2022-09-13T09:36:06;25.10;99.90
42743;DHT22;28397;44.552;-0.848;2022-09-13T09:38:38;25.20;99.90
42743;DHT22;28397;44.552;-0.848;2022-09-13T09:41:29;25.30;99.90
42743;DHT22;28397;44.552;-0.848;2022-09-13T09:44:26;25.40;99.90
42743;DHT22;28397;44.552;-0.848;2022-09-13T09:47:16;25.40;99.90
42743;DHT22;28397;44.552;-0.848;2022-09-13T09:50:03;25.40;99.90
42743;DHT22;28397;44.552;-0.848;2022-09-13T09:52:45;25.60;99.90
42743;DHT22;28397;44.552;-0.848;2022-09-13T09:58:03;26.40;99.90
42743;DHT22;28397;44.552;-0.848;2022-09-13T10:00:33;27.20;99.90
42743;DHT22;28397;44.552;-0.848;2022-09-13T10:03:25;28.00;99.90
42743;DHT22;28397;44.552;-0.848;2022-09-13T10:05:49;28.70;99.90
42743;DHT22;28397;44.552;-0.848;2022-09-13T10:08:46;28.30;99.90
42743;DHT22;28397;44.552;-0.848;2022-09-13T10:11:13;28.70;99.90
42743;DHT22;28397;44.552;-0.848;2022-09-13T10:14:00;29.00;99.90
42743;DHT22;28397;44.552;-0.848;2022-09-13T10:16:28;30.70;99.90
42743;DHT22;28397;44.552;-0.848;2022-09-13T10:19:24;32.10;99.90
42743;DHT22;28397;44.552;-0.848;2022-09-13T10:22:05;33.90;99.90
42743;DHT22;28397;44.552;-0.848;2022-09-13T10:24:34;32.80;99.90
42743;DHT22;28397;44.552;-0.848;2022-09-13T10:27:01;33.40;99.90
42743;DHT22;28397;44.552;-0.848;2022-09-13T10:29:29;34.60;99.90
42743;DHT22;28397;44.552;-0.848;2022-09-13T10:31:55;33.30;99.90
42743;DHT22;28397;44.552;-0.848;2022-09-13T10:34:34;32.40;99.90
42743;DHT22;28397;44.552;-0.848;2022-09-13T10:37:33;32.60;99.90
42743;DHT22;28397;44.552;-0.848;2022-09-13T10:40:07;32.50;99.90
42743;DHT22;28397;44.552;-0.848;2022-09-13T10:42:34;32.70;99.90
42743;DHT22;28397;44.552;-0.848;2022-09-13T10:45:06;32.70;99.90
42743;DHT22;28397;44.552;-0.848;2022-09-13T10:47:38;32.30;99.90
42743;DHT22;28397;44.552;-0.848;2022-09-13T10:50:25;32.40;99.90
42743;DHT22;28397;44.552;-0.848;2022-09-13T10:52:55;33.20;99.90
42743;DHT22;28397;44.552;-0.848;2022-09-13T10:57:48;31.90;99.90
42743;DHT22;28397;44.552;-0.848;2022-09-13T11:00:19;32.10;99.90
42743;DHT22;28397;44.552;-0.848;2022-09-13T11:05:38;32.70;99.90
42743;DHT22;28397;44.552;-0.848;2022-09-13T11:17:37;33.10;99.90
42743;DHT22;28397;44.552;-0.848;2022-09-13T11:33:44;32.20;99.90
42743;DHT22;28397;44.552;-0.848;2022-09-13T11:41:41;32.60;99.90
42743;DHT22;28397;44.552;-0.848;2022-09-13T11:44:28;33.20;99.90
42743;DHT22;28397;44.552;-0.848;2022-09-13T11:47:41;33.20;98.50
42743;DHT22;28397;44.552;-0.848;2022-09-13T11:55:24;33.10;99.30
42743;DHT22;28397;44.552;-0.848;2022-09-13T11:57:56;33.00;99.50
42743;DHT22;28397;44.552;-0.848;2022-09-13T12:00:25;32.60;98.40
42743;DHT22;28397;44.552;-0.848;2022-09-13T12:05:57;32.30;99.30
42743;DHT22;28397;44.552;-0.848;2022-09-13T12:08:28;32.40;98.90
42743;DHT22;28397;44.552;-0.848;2022-09-13T12:11:12;32.40;98.70
42743;DHT22;28397;44.552;-0.848;2022-09-13T12:13:49;32.10;97.90
42743;DHT22;28397;44.552;-0.848;2022-09-13T12:16:25;32.00;99.20
42743;DHT22;28397;44.552;-0.848;2022-09-13T12:18:56;32.20;97.80
42743;DHT22;28397;44.552;-0.848;2022-09-13T12:21:27;32.00;97.10
42743;DHT22;28397;44.552;-0.848;2022-09-13T12:26:48;31.80;97.50
42743;DHT22;28397;44.552;-0.848;2022-09-13T12:29:34;31.70;96.90
42743;DHT22;28397;44.552;-0.848;2022-09-13T12:32:05;31.70;97.40
42743;DHT22;28397;44.552;-0.848;2022-09-13T12:45:41;31.10;97.90
42743;DHT22;28397;44.552;-0.848;2022-09-13T12:56:49;31.20;97.60
42743;DHT22;28397;44.552;-0.848;2022-09-13T13:02:20;31.50;97.60
42743;DHT22;28397;44.552;-0.848;2022-09-13T13:04:50;31.50;97.10
42743;DHT22;28397;44.552;-0.848;2022-09-13T13:07:21;31.50;96.40
42743;DHT22;28397;44.552;-0.848;2022-09-13T13:09:52;31.50;96.70
42743;DHT22;28397;44.552;-0.848;2022-09-13T13:12:33;31.50;96.40
42743;DHT22;28397;44.552;-0.848;2022-09-13T13:17:53;31.30;97.00
42743;DHT22;28397;44.552;-0.848;2022-09-13T13:20:43;31.20;96.60
42743;DHT22;28397;44.552;-0.848;2022-09-13T13:36:28;31.20;96.10
42743;DHT22;28397;44.552;-0.848;2022-09-13T13:38:58;31.20;96.20
42743;DHT22;28397;44.552;-0.848;2022-09-13T13:57:49;31.40;95.30
42743;DHT22;28397;44.552;-0.848;2022-09-13T14:00:24;31.60;95.20
42743;DHT22;28397;44.552;-0.848;2022-09-13T14:16:28;31.00;93.60
42743;DHT22;28397;44.552;-0.848;2022-09-13T14:19:09;31.20;94.50
42743;DHT22;28397;44.552;-0.848;2022-09-13T14:21:41;31.00;93.20
42743;DHT22;28397;44.552;-0.848;2022-09-13T14:24:12;30.80;94.50
42743;DHT22;28397;44.552;-0.848;2022-09-13T14:26:40;30.60;94.60
42743;DHT22;28397;44.552;-0.848;2022-09-13T14:29:07;30.60;94.80
42743;DHT22;28397;44.552;-0.848;2022-09-13T14:31:34;30.80;93.50
42743;DHT22;28397;44.552;-0.848;2022-09-13T14:34:02;30.90;93.50
42743;DHT22;28397;44.552;-0.848;2022-09-13T14:36:27;31.10;93.40
42743;DHT22;28397;44.552;-0.848;2022-09-13T14:38:58;31.20;93.30
42743;DHT22;28397;44.552;-0.848;2022-09-13T14:41:33;31.20;94.20
42743;DHT22;28397;44.552;-0.848;2022-09-13T14:44:18;31.00;92.60
42743;DHT22;28397;44.552;-0.848;2022-09-13T14:46:47;30.90;93.20
42743;DHT22;28397;44.552;-0.848;2022-09-13T14:49:27;30.90;93.40
42743;DHT22;28397;44.552;-0.848;2022-09-13T14:51:57;30.90;93.40
42743;DHT22;28397;44.552;-0.848;2022-09-13T14:54:39;30.90;93.30
42743;DHT22;28397;44.552;-0.848;2022-09-13T14:57:15;30.80;93.90
42743;DHT22;28397;44.552;-0.848;2022-09-13T14:59:46;30.70;93.30
42743;DHT22;28397;44.552;-0.848;2022-09-13T15:02:25;30.60;94.00
42743;DHT22;28397;44.552;-0.848;2022-09-13T15:04:54;30.60;94.20
42743;DHT22;28397;44.552;-0.848;2022-09-13T15:09:49;30.50;92.80
42743;DHT22;28397;44.552;-0.848;2022-09-13T15:12:25;30.50;93.70
42743;DHT22;28397;44.552;-0.848;2022-09-13T15:17:58;30.30;94.00
42743;DHT22;28397;44.552;-0.848;2022-09-13T15:23:32;30.40;93.40
42743;DHT22;28397;44.552;-0.848;2022-09-13T15:26:31;30.40;92.80
42743;DHT22;28397;44.552;-0.848;2022-09-13T15:28:58;30.40;92.60
42743;DHT22;28397;44.552;-0.848;2022-09-13T15:31:33;30.20;93.10
42743;DHT22;28397;44.552;-0.848;2022-09-13T15:37:00;30.30;93.50
42743;DHT22;28397;44.552;-0.848;2022-09-13T15:39:27;30.20;92.60
42743;DHT22;28397;44.552;-0.848;2022-09-13T15:41:58;30.20;92.70
42743;DHT22;28397;44.552;-0.848;2022-09-13T15:44:26;30.20;93.10
42743;DHT22;28397;44.552;-0.848;2022-09-13T15:46:56;30.20;93.20
42743;DHT22;28397;44.552;-0.848;2022-09-13T15:49:26;30.20;93.00
42743;DHT22;28397;44.552;-0.848;2022-09-13T15:51:54;30.10;92.60
42743;DHT22;28397;44.552;-0.848;2022-09-13T15:54:20;30.10;93.40
42743;DHT22;28397;44.552;-0.848;2022-09-13T15:56:49;30.00;93.00
42743;DHT22;28397;44.552;-0.848;2022-09-13T15:59:21;29.90;93.20
42743;DHT22;28397;44.552;-0.848;2022-09-13T16:01:48;29.90;93.40
42743;DHT22;28397;44.552;-0.848;2022-09-13T16:04:14;29.90;92.90
42743;DHT22;28397;44.552;-0.848;2022-09-13T16:06:40;29.90;93.40
42743;DHT22;28397;44.552;-0.848;2022-09-13T16:09:17;29.80;93.00
42743;DHT22;28397;44.552;-0.848;2022-09-13T16:11:45;29.80;93.30
42743;DHT22;28397;44.552;-0.848;2022-09-13T16:14:11;30.00;93.40
42743;DHT22;28397;44.552;-0.848;2022-09-13T16:16:37;30.20;93.50
42743;DHT22;28397;44.552;-0.848;2022-09-13T16:19:03;30.30;93.20
42743;DHT22;28397;44.552;-0.848;2022-09-13T16:21:29;30.40;92.70
42743;DHT22;28397;44.552;-0.848;2022-09-13T16:23:54;30.40;93.00
42743;DHT22;28397;44.552;-0.848;2022-09-13T16:26:20;30.50;93.00
42743;DHT22;28397;44.552;-0.848;2022-09-13T16:28:46;30.30;93.00
42743;DHT22;28397;44.552;-0.848;2022-09-13T16:31:12;30.30;93.00
42743;DHT22;28397;44.552;-0.848;2022-09-13T16:33:41;30.30;93.00
42743;DHT22;28397;44.552;-0.848;2022-09-13T16:36:10;30.30;92.90
42743;DHT22;28397;44.552;-0.848;2022-09-13T16:38:37;30.40;92.80
42743;DHT22;28397;44.552;-0.848;2022-09-13T16:41:06;30.40;92.40
42743;DHT22;28397;44.552;-0.848;2022-09-13T16:43:32;30.40;92.70
42743;DHT22;28397;44.552;-0.848;2022-09-13T16:45:59;30.30;92.80
42743;DHT22;28397;44.552;-0.848;2022-09-13T16:48:29;30.10;93.00
42743;DHT22;28397;44.552;-0.848;2022-09-13T16:51:01;30.10;92.80
42743;DHT22;28397;44.552;-0.848;2022-09-13T16:53:33;30.10;92.60
42743;DHT22;28397;44.552;-0.848;2022-09-13T16:56:10;30.20;92.90
42743;DHT22;28397;44.552;-0.848;2022-09-13T16:58:38;30.20;92.60
42743;DHT22;28397;44.552;-0.848;2022-09-13T17:01:08;30.10;92.60
42743;DHT22;28397;44.552;-0.848;2022-09-13T17:03:35;30.10;93.10
42743;DHT22;28397;44.552;-0.848;2022-09-13T17:06:03;30.10;92.90
42743;DHT22;28397;44.552;-0.848;2022-09-13T17:08:30;30.00;92.80
42743;DHT22;28397;44.552;-0.848;2022-09-13T17:10:56;29.90;92.80
42743;DHT22;28397;44.552;-0.848;2022-09-13T17:13:22;29.90;93.40
42743;DHT22;28397;44.552;-0.848;2022-09-13T17:15:49;29.80;92.80
42743;DHT22;28397;44.552;-0.848;2022-09-13T17:18:15;29.70;93.40
42743;DHT22;28397;44.552;-0.848;2022-09-13T17:20:45;29.50;93.60
42743;DHT22;28397;44.552;-0.848;2022-09-13T17:23:11;29.40;93.90
42743;DHT22;28397;44.552;-0.848;2022-09-13T17:25:44;29.40;93.70
42743;DHT22;28397;44.552;-0.848;2022-09-13T17:28:14;29.30;93.70
42743;DHT22;28397;44.552;-0.848;2022-09-13T17:30:40;29.20;94.10
42743;DHT22;28397;44.552;-0.848;2022-09-13T17:33:07;29.00;93.90
42743;DHT22;28397;44.552;-0.848;2022-09-13T17:35:33;29.00;94.30
42743;DHT22;28397;44.552;-0.848;2022-09-13T17:38:00;28.90;93.50
42743;DHT22;28397;44.552;-0.848;2022-09-13T17:40:28;28.80;93.50
42743;DHT22;28397;44.552;-0.848;2022-09-13T17:42:54;28.70;93.90
42743;DHT22;28397;44.552;-0.848;2022-09-13T17:45:20;28.70;94.20
42743;DHT22;28397;44.552;-0.848;2022-09-13T17:47:46;28.40;95.30
42743;DHT22;28397;44.552;-0.848;2022-09-13T17:50:13;28.30;95.20
42743;DHT22;28397;44.552;-0.848;2022-09-13T17:52:39;28.30;94.80
42743;DHT22;28397;44.552;-0.848;2022-09-13T17:55:04;28.20;94.50
42743;DHT22;28397;44.552;-0.848;2022-09-13T17:57:31;28.10;94.90
42743;DHT22;28397;44.552;-0.848;2022-09-13T17:59:57;28.00;95.00
42743;DHT22;28397;44.552;-0.848;2022-09-13T18:02:23;27.90;95.00
42743;DHT22;28397;44.552;-0.848;2022-09-13T18:04:51;27.90;94.60
42743;DHT22;28397;44.552;-0.848;2022-09-13T18:07:17;27.80;95.40
42743;DHT22;28397;44.552;-0.848;2022-09-13T18:09:43;27.70;94.80
42743;DHT22;28397;44.552;-0.848;2022-09-13T18:12:09;27.70;95.10
42743;DHT22;28397;44.552;-0.848;2022-09-13T18:14:36;27.50;95.60
42743;DHT22;28397;44.552;-0.848;2022-09-13T18:17:02;27.50;95.30
42743;DHT22;28397;44.552;-0.848;2022-09-13T18:19:35;27.50;95.70
42743;DHT22;28397;44.552;-0.848;2022-09-13T18:22:01;27.60;95.40
42743;DHT22;28397;44.552;-0.848;2022-09-13T18:24:26;27.40;95.50
42743;DHT22;28397;44.552;-0.848;2022-09-13T18:26:52;27.40;95.60
42743;DHT22;28397;44.552;-0.848;2022-09-13T18:29:17;27.40;95.30
42743;DHT22;28397;44.552;-0.848;2022-09-13T18:31:43;27.30;95.70
42743;DHT22;28397;44.552;-0.848;2022-09-13T18:34:13;27.20;95.90
42743;DHT22;28397;44.552;-0.848;2022-09-13T18:36:39;27.20;95.60
42743;DHT22;28397;44.552;-0.848;2022-09-13T18:39:07;27.20;96.20
42743;DHT22;28397;44.552;-0.848;2022-09-13T18:41:35;27.20;96.80
42743;DHT22;28397;44.552;-0.848;2022-09-13T18:44:02;27.10;96.20
42743;DHT22;28397;44.552;-0.848;2022-09-13T18:46:30;26.90;96.50
42743;DHT22;28397;44.552;-0.848;2022-09-13T18:48:57;27.00;95.90
42743;DHT22;28397;44.552;-0.848;2022-09-13T18:51:34;26.90;96.70
42743;DHT22;28397;44.552;-0.848;2022-09-13T18:54:01;26.70;96.30
42743;DHT22;28397;44.552;-0.848;2022-09-13T18:56:28;26.90;96.10
42743;DHT22;28397;44.552;-0.848;2022-09-13T18:58:54;26.70;96.80
42743;DHT22;28397;44.552;-0.848;2022-09-13T19:01:23;26.70;96.30
42743;DHT22;28397;44.552;-0.848;2022-09-13T19:04:04;26.80;96.90
42743;DHT22;28397;44.552;-0.848;2022-09-13T19:06:33;26.70;96.90